This is the latest recevied weather packets stored in our database for station/object OE-11053. If no packets are shown the sender has not sent any weather packets the latest 10 day(s).
| Time | Temp. | Humidity | Pressure | Rain* | Wind** | Luminosity | Snow |
|---|---|---|---|---|---|---|---|
| 1787798495 | 18.89° C | 70% | 1015.5 hPa | 0 mm | - | 0 W/m² | - |
| 1787798123 | 18.89° C | 70% | 1015.5 hPa | 0 mm | - | 0 W/m² | - |
| 1787797523 | 19.44° C | 70% | 1015.1 hPa | 0 mm | - | 0 W/m² | - |
| 1787796696 | 19.44° C | 70% | 1015.1 hPa | 0 mm | - | 0 W/m² | - |
| 1787796322 | 19.44° C | 70% | 1015.1 hPa | 0 mm | - | 0 W/m² | - |
| 1787795723 | 19.44° C | 69% | 1015.1 hPa | 0 mm | - | 0 W/m² | - |
| 1787794896 | 19.44° C | 70% | 1014.9 hPa | 0 mm | - | 0 W/m² | - |
| 1787794523 | 19.44° C | 70% | 1014.9 hPa | 0 mm | - | 0 W/m² | - |
| 1787793923 | 19.44° C | 69% | 1015 hPa | 0 mm | - | 0 W/m² | - |
| 1787793096 | 20° C | 69% | 1015.2 hPa | 0 mm | - | 0 W/m² | - |
| 1787792723 | 20° C | 69% | 1015.2 hPa | 0 mm | - | 0 W/m² | - |
| 1787792123 | 20° C | 69% | 1015 hPa | 0 mm | - | 0 W/m² | - |
| 1787791296 | 20° C | 69% | 1015.3 hPa | 0 mm | - | 0 W/m² | - |
| 1787790923 | 20° C | 70% | 1015.4 hPa | 0 mm | - | 0 W/m² | - |
| 1787790323 | 20° C | 70% | 1015.3 hPa | 0 mm | - | 0 W/m² | - |
| 1787789495 | 19.44° C | 72% | 1015.4 hPa | 0 mm | - | 0 W/m² | - |
| 1787789123 | 18.89° C | 76% | 1015.7 hPa | 0 mm | - | 0 W/m² | - |
| 1787788523 | 17.22° C | 87% | 1015.9 hPa | 0 mm | - | 0 W/m² | - |
| 1787787696 | 17.22° C | 89% | 1016.2 hPa | 0 mm | - | 0 W/m² | - |
| 1787787323 | 17.22° C | 89% | 1016.2 hPa | 0 mm | - | 0 W/m² | - |
| 1787786723 | 17.22° C | 88% | 1016.2 hPa | 0 mm | - | 0 W/m² | - |
| 1787786122 | 17.22° C | 90% | 1016.1 hPa | 0 mm | - | 0 W/m² | - |
| 1787785523 | 17.22° C | 89% | 1016.1 hPa | 0 mm | - | 0 W/m² | - |
| 1787784923 | 17.22° C | 89% | 1016.2 hPa | 0 mm | - | 0 W/m² | - |
| 1787784096 | 17.22° C | 89% | 1016.2 hPa | 0 mm | - | 0 W/m² | - |
* Rain latest hour (hover to see other rain measurements)
** Current wind speed in m/s (hover to see current wind gust speed)